Terminal Aerodrome Forecast
Issued by NWS

Current Version | Previous Version | Graphics & Text | Print | Product List | Glossary On
Versions: 1 2 3 4 5 6 7 8 9 10 11 12 13 14 15 16
933
FTUS41 KPBZ 261123
TAFMGW
TAF
KMGW 261123Z 2612/2712 16004KT P6SM SCT250
     FM261800 20008G16KT P6SM VCTS BKN080CB
     FM262000 22010G20KT 6SM -SHRA VCTS BKN070CB
     FM270000 28008G16KT P6SM VCSH OVC015
     FM270400 25005KT P6SM BKN020
     FM270900 25004KT P6SM SCT020=

USA.gov is the U.S. government's official web portal to all federal, state and local government web resources and services.